createdAt,value
2023-04-14T00:00:17.713Z,25.20
2023-04-14T00:02:46.982Z,25.53
2023-04-14T00:05:15.896Z,23.30
2023-04-14T00:07:44.636Z,23.30
2023-04-14T00:10:13.217Z,25.67
2023-04-14T00:12:41.869Z,23.30
2023-04-14T00:15:12.842Z,22.97
2023-04-14T00:17:41.503Z,25.13
2023-04-14T00:20:10.728Z,24.43
2023-04-14T00:22:39.316Z,25.17
2023-04-14T00:25:08.332Z,23.80
2023-04-14T00:27:36.899Z,25.63
2023-04-14T00:30:05.897Z,26.13
2023-04-14T00:32:36.165Z,24.57
2023-04-14T00:35:04.996Z,23.23
2023-04-14T00:37:33.478Z,24.23
2023-04-14T00:40:02.190Z,24.20
2023-04-14T00:42:32.085Z,23.80
2023-04-14T00:45:00.746Z,24.83
2023-04-14T00:47:29.388Z,26.20
2023-04-14T00:49:59.542Z,23.70
2023-04-14T00:52:28.274Z,24.10
2023-04-14T00:54:56.865Z,24.17
2023-04-14T00:57:25.835Z,23.60
2023-04-14T00:59:55.018Z,25.73
2023-04-14T01:02:23.871Z,28.03
2023-04-14T01:04:54.642Z,26.50
2023-04-14T01:07:26.695Z,26.70
2023-04-14T01:09:57.577Z,27.23
2023-04-14T01:12:41.308Z,24.33
2023-04-14T01:15:16.045Z,28.00
2023-04-14T01:17:50.028Z,26.33
2023-04-14T01:20:27.864Z,26.53
2023-04-14T01:23:14.325Z,29.13
2023-04-14T01:26:08.808Z,25.57
2023-04-14T01:29:07.206Z,23.33
2023-04-14T01:31:42.930Z,25.47
2023-04-14T01:34:17.082Z,26.20
2023-04-14T01:36:49.087Z,24.43
2023-04-14T01:39:22.892Z,23.57
2023-04-14T01:41:59.614Z,26.93
2023-04-14T01:44:30.758Z,26.30
2023-04-14T01:47:05.156Z,27.67
2023-04-14T01:49:36.418Z,31.70
2023-04-14T01:52:08.419Z,29.10
2023-04-14T01:54:39.039Z,30.10
2023-04-14T01:57:09.392Z,27.63
2023-04-14T01:59:39.628Z,31.50
2023-04-14T02:02:11.431Z,27.37
2023-04-14T02:04:42.109Z,29.00
2023-04-14T02:07:12.905Z,30.77
2023-04-14T02:09:43.840Z,32.47
2023-04-14T02:12:13.623Z,30.70
2023-04-14T02:14:43.979Z,31.77
2023-04-14T02:17:15.283Z,31.17
2023-04-14T02:19:46.590Z,29.90
2023-04-14T02:22:15.475Z,32.13
2023-04-14T02:24:44.042Z,32.17
2023-04-14T02:27:18.609Z,32.83
2023-04-14T02:29:53.984Z,30.40
2023-04-14T02:32:27.136Z,35.67
2023-04-14T02:35:02.112Z,34.43
2023-04-14T02:37:37.385Z,38.60
2023-04-14T02:40:13.211Z,29.27
2023-04-14T02:42:44.665Z,32.93
2023-04-14T02:45:17.517Z,31.17
2023-04-14T02:47:52.357Z,30.90
2023-04-14T02:50:23.491Z,32.30
2023-04-14T02:52:53.733Z,27.17
2023-04-14T02:55:24.475Z,29.97
2023-04-14T02:57:54.875Z,29.00
2023-04-14T03:00:25.036Z,30.63
2023-04-14T03:02:55.957Z,28.60
2023-04-14T03:05:25.920Z,29.47
2023-04-14T03:07:56.823Z,28.80
2023-04-14T03:10:26.426Z,24.57
2023-04-14T03:12:55.833Z,26.67
2023-04-14T03:15:25.675Z,27.47
2023-04-14T03:17:58.721Z,28.53
2023-04-14T03:20:28.222Z,28.30
2023-04-14T03:23:01.900Z,27.50
2023-04-14T03:25:32.091Z,29.93
2023-04-14T03:28:02.460Z,29.37
2023-04-14T03:30:33.269Z,28.27
2023-04-14T03:33:07.035Z,30.00
2023-04-14T03:35:37.687Z,31.20
2023-04-14T03:38:09.394Z,30.80
2023-04-14T03:40:41.465Z,32.73
2023-04-14T03:43:12.836Z,35.87
2023-04-14T03:45:41.639Z,33.63
2023-04-14T03:48:14.403Z,42.20
2023-04-14T03:50:45.914Z,36.40
2023-04-14T03:53:16.495Z,31.27
2023-04-14T03:55:47.756Z,30.20
2023-04-14T03:58:18.077Z,28.67
2023-04-14T04:00:47.480Z,28.37
2023-04-14T04:03:18.063Z,30.50
2023-04-14T04:05:47.201Z,28.50
2023-04-14T04:08:16.761Z,35.97
2023-04-14T04:10:47.697Z,30.73
2023-04-14T04:13:18.118Z,26.83
2023-04-14T04:15:47.725Z,31.20
2023-04-14T04:18:19.478Z,38.10
2023-04-14T04:20:48.696Z,25.30
2023-04-14T04:23:19.652Z,25.30
2023-04-14T04:25:48.597Z,25.03
2023-04-14T04:28:18.268Z,25.93
2023-04-14T04:30:47.923Z,46.43
2023-04-14T04:33:19.164Z,28.17
2023-04-14T04:35:48.189Z,54.83
2023-04-14T04:38:16.945Z,27.87
2023-04-14T04:40:45.633Z,27.50
2023-04-14T04:43:14.155Z,28.17
2023-04-14T04:46:10.140Z,29.90
2023-04-14T04:48:40.150Z,31.23
2023-04-14T04:51:10.064Z,27.53
2023-04-14T04:53:38.611Z,28.13
2023-04-14T04:56:08.149Z,27.63
2023-04-14T04:58:36.699Z,27.93
2023-04-14T05:01:09.992Z,28.33
2023-04-14T05:03:40.572Z,29.13
2023-04-14T05:06:09.170Z,27.40
2023-04-14T05:08:37.709Z,27.23
2023-04-14T05:11:07.353Z,28.17
2023-04-14T05:13:35.906Z,27.23
2023-04-14T05:16:05.233Z,31.40
2023-04-14T05:18:34.202Z,34.57
2023-04-14T05:21:08.901Z,29.27
2023-04-14T05:23:39.023Z,31.33
2023-04-14T05:26:31.052Z,37.40
2023-04-14T05:28:56.727Z,33.47
2023-04-14T05:31:25.380Z,34.13
2023-04-14T05:33:54.060Z,39.00
2023-04-14T05:36:24.060Z,37.07
2023-04-14T05:38:52.719Z,35.23
2023-04-14T05:41:22.224Z,34.97
2023-04-14T05:43:50.931Z,28.07
2023-04-14T05:46:19.580Z,26.00
2023-04-14T05:48:48.186Z,22.13
2023-04-14T05:51:16.863Z,25.77
2023-04-14T05:53:46.882Z,24.57
2023-04-14T05:56:15.543Z,24.00
2023-04-14T05:58:44.493Z,27.13
2023-04-14T06:01:13.063Z,34.37
2023-04-14T06:03:41.885Z,24.70
2023-04-14T06:06:10.729Z,31.87
2023-04-14T06:08:39.309Z,43.30
2023-04-14T06:11:09.262Z,42.07
2023-04-14T06:13:38.047Z,68.13
2023-04-14T06:16:07.300Z,59.20
2023-04-14T06:18:35.908Z,52.93
2023-04-14T06:21:04.597Z,88.83
2023-04-14T06:23:33.139Z,115.53
2023-04-14T06:26:01.712Z,47.87
2023-04-14T06:28:31.688Z,44.90
2023-04-14T06:31:01.376Z,63.13
2023-04-14T06:33:29.852Z,39.43
2023-04-14T06:35:58.432Z,85.80
2023-04-14T06:38:27.279Z,57.93
2023-04-14T06:40:55.758Z,29.00
2023-04-14T06:43:24.319Z,31.27
2023-04-14T06:45:54.322Z,22.60
2023-04-14T06:48:23.055Z,27.37
2023-04-14T06:50:56.208Z,24.37
2023-04-14T06:53:25.005Z,21.70
2023-04-14T06:55:59.839Z,19.67
2023-04-14T06:58:28.814Z,16.97
2023-04-14T07:01:00.003Z,26.30
2023-04-14T07:03:30.723Z,35.40
2023-04-14T07:06:05.348Z,38.77
2023-04-14T07:08:35.277Z,26.63
2023-04-14T07:11:05.072Z,28.90
2023-04-14T07:13:34.482Z,17.33
2023-04-14T07:16:07.024Z,18.37
2023-04-14T07:18:36.480Z,17.17
2023-04-14T07:21:05.432Z,16.67
2023-04-14T07:23:34.708Z,22.57
2023-04-14T07:26:03.257Z,21.50
2023-04-14T07:28:32.664Z,15.00
2023-04-14T07:31:09.047Z,16.80
2023-04-14T07:33:40.000Z,19.67
2023-04-14T07:36:09.756Z,15.60
2023-04-14T07:38:38.666Z,18.33
2023-04-14T07:41:08.637Z,15.67
2023-04-14T07:43:37.304Z,16.70
2023-04-14T07:46:06.879Z,20.13
2023-04-14T07:48:36.741Z,15.50
2023-04-14T07:51:08.314Z,16.10
2023-04-14T07:53:42.458Z,18.80
2023-04-14T07:56:16.901Z,17.00
2023-04-14T07:58:45.856Z,20.60
2023-04-14T08:01:15.202Z,19.10
2023-04-14T08:03:45.571Z,16.97
2023-04-14T08:06:17.007Z,21.67
2023-04-14T08:08:45.670Z,17.13
2023-04-14T08:11:14.254Z,15.50
2023-04-14T08:13:44.273Z,18.30
2023-04-14T08:16:12.827Z,17.00
2023-04-14T08:18:41.740Z,20.70
2023-04-14T08:21:10.607Z,20.20
2023-04-14T08:23:40.661Z,13.60
2023-04-14T08:26:09.165Z,16.83
2023-04-14T08:28:37.826Z,16.40
2023-04-14T08:31:06.938Z,17.87
2023-04-14T08:33:35.500Z,14.87
2023-04-14T08:36:04.233Z,19.57
2023-04-14T08:38:32.743Z,15.90
2023-04-14T08:41:05.743Z,14.83
2023-04-14T08:43:34.761Z,17.27
2023-04-14T08:46:04.773Z,14.27
2023-04-14T08:48:36.969Z,13.23
2023-04-14T08:51:11.516Z,14.37
2023-04-14T08:53:45.415Z,17.10
2023-04-14T08:56:18.143Z,19.07
2023-04-14T08:58:47.638Z,15.55
2023-04-14T09:01:16.837Z,10.90
2023-04-14T09:03:46.138Z,15.00
2023-04-14T09:06:16.032Z,15.00
2023-04-14T09:08:45.149Z,18.57
2023-04-14T09:11:17.240Z,20.63
2023-04-14T09:13:47.803Z,15.60
2023-04-14T09:16:18.239Z,15.10
2023-04-14T09:18:47.747Z,15.25
2023-04-14T09:21:49.736Z,52.65
2023-04-14T09:24:10.505Z,27.05
2023-04-14T09:26:42.920Z,30.30
2023-04-14T09:29:11.600Z,23.70
2023-04-14T09:31:41.171Z,25.60
2023-04-14T09:34:18.659Z,20.17
2023-04-14T09:37:02.780Z,21.92
2023-04-14T09:39:31.523Z,22.77
2023-04-14T09:42:01.850Z,24.70
2023-04-14T09:44:30.745Z,26.77
2023-04-14T09:47:05.256Z,26.07
2023-04-14T09:49:34.118Z,25.80
2023-04-14T09:52:07.596Z,24.53
2023-04-14T09:54:36.656Z,23.83
2023-04-14T09:57:07.862Z,25.97
2023-04-14T09:59:38.205Z,18.43
2023-04-14T10:02:08.064Z,19.77
2023-04-14T10:04:38.487Z,19.75
2023-04-14T10:07:09.030Z,23.27
2023-04-14T10:09:39.024Z,27.20
2023-04-14T10:12:12.698Z,26.43
2023-04-14T10:14:42.368Z,43.25
2023-04-14T10:17:11.510Z,31.45
2023-04-14T10:19:40.076Z,21.92
2023-04-14T10:22:08.788Z,23.05
2023-04-14T10:24:37.967Z,20.92
2023-04-14T10:27:07.024Z,18.58
2023-04-14T10:29:37.163Z,23.10
2023-04-14T10:32:09.093Z,22.67
2023-04-14T10:34:42.648Z,20.02
2023-04-14T10:37:15.435Z,28.13
2023-04-14T10:39:46.105Z,20.85
2023-04-14T10:42:16.493Z,27.27
2023-04-14T10:44:46.815Z,17.23
2023-04-14T10:47:25.387Z,15.52
2023-04-14T10:49:58.413Z,13.50
2023-04-14T10:52:35.917Z,12.52
2023-04-14T10:55:12.545Z,9.80
2023-04-14T10:57:44.166Z,15.60
2023-04-14T11:00:32.107Z,14.07
2023-04-14T11:03:04.723Z,11.25
2023-04-14T11:05:35.169Z,12.10
2023-04-14T11:08:15.380Z,9.38
2023-04-14T11:10:53.942Z,9.77
2023-04-14T11:13:23.922Z,9.32
2023-04-14T11:15:59.233Z,12.15
2023-04-14T11:18:37.233Z,12.00
2023-04-14T11:21:09.165Z,12.40
2023-04-14T11:23:38.720Z,11.52
2023-04-14T11:26:08.394Z,9.00
2023-04-14T11:28:38.671Z,9.70
2023-04-14T11:31:10.106Z,12.50
2023-04-14T11:33:40.562Z,9.18
2023-04-14T11:36:10.795Z,11.25
2023-04-14T11:38:41.031Z,9.75
2023-04-14T11:41:10.670Z,10.23
2023-04-14T11:43:46.477Z,10.38
2023-04-14T11:46:17.050Z,11.98
2023-04-14T11:48:46.309Z,19.40
2023-04-14T11:51:17.301Z,19.58
2023-04-14T11:53:47.125Z,20.63
2023-04-14T11:56:16.036Z,22.10
2023-04-14T11:58:44.641Z,18.48
2023-04-14T12:01:15.337Z,22.67
2023-04-14T12:03:47.062Z,18.52
2023-04-14T12:06:16.263Z,18.42
2023-04-14T12:08:50.573Z,19.85
2023-04-14T12:11:19.506Z,18.60
2023-04-14T12:13:49.156Z,18.88
2023-04-14T12:16:18.987Z,16.02
2023-04-14T12:18:49.179Z,21.13
2023-04-14T12:21:21.926Z,18.55
2023-04-14T12:23:50.853Z,18.38
2023-04-14T12:26:20.506Z,24.08
2023-04-14T12:28:57.732Z,19.17
2023-04-14T12:31:31.363Z,15.00
2023-04-14T12:34:06.754Z,17.45
2023-04-14T12:39:08.114Z,15.43
2023-04-14T12:41:40.632Z,19.08
2023-04-14T12:44:16.547Z,28.55
2023-04-14T12:46:50.338Z,20.90
2023-04-14T12:49:34.312Z,19.52
2023-04-14T12:52:03.088Z,15.50
2023-04-14T12:54:46.965Z,19.95
2023-04-14T12:57:15.700Z,21.67
2023-04-14T12:59:44.294Z,21.15
2023-04-14T13:02:13.097Z,23.08
2023-04-14T13:04:43.531Z,21.38
2023-04-14T13:07:12.206Z,19.02
2023-04-14T13:09:42.814Z,16.50
2023-04-14T13:12:11.629Z,18.30
2023-04-14T13:14:40.449Z,18.60
2023-04-14T13:17:09.098Z,15.85
2023-04-14T13:19:37.806Z,15.73
2023-04-14T13:22:07.907Z,15.05
2023-04-14T13:24:36.481Z,16.10
2023-04-14T13:27:05.096Z,17.08
2023-04-14T13:29:34.392Z,18.55
2023-04-14T13:32:02.943Z,20.38
2023-04-14T13:34:32.650Z,20.30
2023-04-14T13:37:01.472Z,21.00
2023-04-14T13:39:31.438Z,17.35
2023-04-14T13:42:00.669Z,17.90
2023-04-14T13:44:29.339Z,14.77
2023-04-14T13:46:57.803Z,15.95
2023-04-14T13:49:26.496Z,17.88
2023-04-14T13:51:55.147Z,21.02
2023-04-14T13:54:23.678Z,19.58
2023-04-14T13:56:53.704Z,21.08
2023-04-14T13:59:23.121Z,21.85
2023-04-14T14:01:51.874Z,15.13
2023-04-14T14:04:20.960Z,16.13
2023-04-14T14:06:51.395Z,18.92
2023-04-14T14:09:21.611Z,19.90
2023-04-14T14:11:50.258Z,22.25
2023-04-14T14:14:20.242Z,16.13
2023-04-14T14:16:49.948Z,19.25
2023-04-14T14:19:18.672Z,17.70
2023-04-14T14:21:47.352Z,18.63
2023-04-14T14:24:16.308Z,19.83
2023-04-14T14:26:44.885Z,21.67
2023-04-14T14:29:13.422Z,23.65
2023-04-14T14:31:43.961Z,24.85
2023-04-14T14:34:12.747Z,27.02
2023-04-14T14:36:41.636Z,27.23
2023-04-14T14:39:10.970Z,28.95
2023-04-14T14:41:40.057Z,26.92
2023-04-14T14:44:08.749Z,26.67
2023-04-14T14:46:37.831Z,25.77
2023-04-14T14:49:08.352Z,24.60
2023-04-14T14:51:37.738Z,28.13
2023-04-14T14:54:10.118Z,24.80
2023-04-14T14:56:39.271Z,24.85
2023-04-14T14:59:08.619Z,24.65
2023-04-14T15:01:37.500Z,11.00
2023-04-14T15:04:07.844Z,22.30
2023-04-14T15:06:37.543Z,31.23
2023-04-14T15:09:06.719Z,32.83
2023-04-14T15:11:35.618Z,28.83
2023-04-14T15:14:04.486Z,33.90
2023-04-14T15:16:33.481Z,25.67
2023-04-14T15:19:02.005Z,20.77
2023-04-14T15:21:32.998Z,22.08
2023-04-14T15:24:02.399Z,18.63
2023-04-14T15:26:31.362Z,14.73
2023-04-14T15:28:59.906Z,16.92
2023-04-14T15:31:28.453Z,14.00
2023-04-14T15:34:00.110Z,17.70
2023-04-14T15:36:28.979Z,22.50
2023-04-14T15:38:59.131Z,25.20
2023-04-14T15:41:28.036Z,24.50
2023-04-14T15:43:56.653Z,25.02
2023-04-14T15:46:25.341Z,26.52
2023-04-14T15:48:53.877Z,17.13
2023-04-14T15:51:22.491Z,20.67
2023-04-14T15:53:51.509Z,15.63
2023-04-14T15:56:23.703Z,17.40
2023-04-14T15:58:52.359Z,16.23
2023-04-14T16:01:21.074Z,15.00
2023-04-14T16:03:51.894Z,13.53
2023-04-14T16:06:21.553Z,13.20
2023-04-14T16:08:50.961Z,16.10
2023-04-14T16:11:21.043Z,19.27
2023-04-14T16:13:50.439Z,16.33
2023-04-14T16:16:19.086Z,14.70
2023-04-14T16:18:47.675Z,14.13
2023-04-14T16:21:16.298Z,12.93
2023-04-14T16:23:44.847Z,11.57
2023-04-14T16:26:13.467Z,15.40
2023-04-14T16:28:43.826Z,11.50
2023-04-14T16:31:18.408Z,12.63
2023-04-14T16:33:47.373Z,11.20
2023-04-14T16:36:15.941Z,12.07
2023-04-14T16:38:44.449Z,11.03
2023-04-14T16:41:12.968Z,11.93
2023-04-14T16:43:42.952Z,11.77
2023-04-14T16:46:11.957Z,11.57
2023-04-14T16:48:42.908Z,11.57
2023-04-14T16:51:12.235Z,12.40
2023-04-14T16:53:40.949Z,13.63
2023-04-14T16:56:12.397Z,11.93
2023-04-14T16:58:44.727Z,11.67
2023-04-14T17:01:13.753Z,13.73
2023-04-14T17:03:42.907Z,13.17
2023-04-14T17:06:11.947Z,9.00
2023-04-14T17:08:40.496Z,10.10
2023-04-14T17:11:09.003Z,10.77
2023-04-14T17:13:37.525Z,10.93
2023-04-14T17:16:09.624Z,11.07
2023-04-14T17:18:38.417Z,12.33
2023-04-14T17:21:07.957Z,12.67
2023-04-14T17:23:38.218Z,11.57
2023-04-14T17:26:07.112Z,10.87
2023-04-14T17:28:36.004Z,11.23
2023-04-14T17:31:11.663Z,10.90
2023-04-14T17:33:40.943Z,14.57
2023-04-14T17:36:10.292Z,11.13
2023-04-14T17:38:39.333Z,13.20
2023-04-14T17:41:10.993Z,103.80
2023-04-14T17:43:41.612Z,98.70
2023-04-14T17:46:11.943Z,99.03
2023-04-14T17:48:40.775Z,80.10
2023-04-14T17:51:09.607Z,81.97
2023-04-14T17:53:38.210Z,62.10
2023-04-14T17:56:07.424Z,62.00
2023-04-14T17:58:36.043Z,27.30
2023-04-14T18:01:04.925Z,19.47
2023-04-14T18:03:35.624Z,24.47
2023-04-14T18:06:11.580Z,27.07
2023-04-14T18:08:40.103Z,28.03
2023-04-14T18:11:10.104Z,20.23
2023-04-14T18:13:38.793Z,23.70
2023-04-14T18:16:08.608Z,24.20
2023-04-14T18:18:39.620Z,24.60
2023-04-14T18:21:08.529Z,24.03
2023-04-14T18:23:37.783Z,23.40
2023-04-14T18:28:39.117Z,21.17
2023-04-14T18:31:07.892Z,19.20
2023-04-14T18:33:36.610Z,18.30
2023-04-14T18:36:06.740Z,17.43
2023-04-14T18:38:35.371Z,18.57
2023-04-14T18:41:05.048Z,17.50
2023-04-14T18:43:34.007Z,15.27
2023-04-14T18:46:02.694Z,16.60
2023-04-14T18:48:31.994Z,13.37
2023-04-14T18:51:08.308Z,13.20
2023-04-14T18:53:42.016Z,14.47
2023-04-14T18:56:11.237Z,13.93
2023-04-14T18:58:40.158Z,13.53
2023-04-14T19:01:10.085Z,13.77
2023-04-14T19:03:38.802Z,14.47
2023-04-14T19:06:07.511Z,13.67
2023-04-14T19:08:37.510Z,14.40
2023-04-14T19:11:06.114Z,15.07
2023-04-14T19:13:35.018Z,25.47
2023-04-14T19:16:08.569Z,14.90
2023-04-14T19:18:37.318Z,14.43
2023-04-14T19:21:06.053Z,15.63
2023-04-14T19:23:37.382Z,15.67
2023-04-14T19:26:11.353Z,15.53
2023-04-14T19:28:42.622Z,17.27
2023-04-14T19:31:13.251Z,16.63
2023-04-14T19:33:42.066Z,17.60
2023-04-14T19:36:15.086Z,17.90
2023-04-14T19:38:44.300Z,18.93
2023-04-14T19:41:14.995Z,19.23
2023-04-14T19:43:43.958Z,17.13
2023-04-14T19:46:13.632Z,18.13
2023-04-14T19:48:42.276Z,17.27
2023-04-14T19:51:11.576Z,17.33
2023-04-14T19:53:40.478Z,15.27
2023-04-14T19:56:09.053Z,15.97
2023-04-14T19:58:39.045Z,14.93
2023-04-14T20:01:07.723Z,14.87
2023-04-14T20:03:36.477Z,13.73
2023-04-14T20:06:05.219Z,13.83
2023-04-14T20:08:33.959Z,14.40
2023-04-14T20:11:02.555Z,14.63
2023-04-14T20:13:35.013Z,14.97
2023-04-14T20:16:06.030Z,14.10
2023-04-14T20:18:34.823Z,14.47
2023-04-14T20:21:04.914Z,14.73
2023-04-14T20:23:33.581Z,14.20
2023-04-14T20:26:02.592Z,15.03
2023-04-14T20:28:31.711Z,15.07
2023-04-14T20:31:00.460Z,15.50
2023-04-14T20:33:31.731Z,14.50
2023-04-14T20:36:01.882Z,14.57
2023-04-14T20:38:30.731Z,15.57
2023-04-14T20:40:59.430Z,16.47
2023-04-14T20:43:34.084Z,15.70
2023-04-14T20:46:04.370Z,15.60
2023-04-14T20:48:34.366Z,15.57
2023-04-14T20:51:03.824Z,15.43
2023-04-14T20:53:32.341Z,16.70
2023-04-14T20:56:01.070Z,16.90
2023-04-14T20:58:29.754Z,16.07
2023-04-14T21:00:58.244Z,15.93
2023-04-14T21:03:27.964Z,15.33
2023-04-14T21:05:58.085Z,15.77
2023-04-14T21:08:27.645Z,15.93
2023-04-14T21:11:15.113Z,17.00
2023-04-14T21:15:30.527Z,17.33
2023-04-14T21:16:33.701Z,25.27
2023-04-14T21:19:04.136Z,21.93
2023-04-14T21:21:34.575Z,26.60
2023-04-14T21:24:04.019Z,30.07
2023-04-14T21:26:32.858Z,22.47
2023-04-14T21:29:02.043Z,23.73
2023-04-14T21:31:30.874Z,22.63
2023-04-14T21:33:59.487Z,17.97
2023-04-14T21:36:28.834Z,18.40
2023-04-14T21:38:58.836Z,16.00
2023-04-14T21:41:27.587Z,14.60
2023-04-14T21:43:56.326Z,16.33
2023-04-14T21:46:25.041Z,15.93
2023-04-14T21:48:53.772Z,16.13
2023-04-14T21:51:22.326Z,14.87
2023-04-14T21:53:51.042Z,13.60
2023-04-14T21:56:20.967Z,16.57
2023-04-14T21:58:49.719Z,15.07
2023-04-14T22:01:18.399Z,15.43
2023-04-14T22:03:47.515Z,14.83
2023-04-14T22:06:16.178Z,14.67
2023-04-14T22:08:44.873Z,15.37
2023-04-14T22:11:14.742Z,15.10
2023-04-14T22:13:44.968Z,14.80
2023-04-14T22:16:13.772Z,13.13
2023-04-14T22:18:42.587Z,13.67
2023-04-14T22:21:12.266Z,13.73
2023-04-14T22:23:40.898Z,13.70
2023-04-14T22:26:09.624Z,23.60
2023-04-14T22:28:38.234Z,13.57
2023-04-14T22:31:09.924Z,15.03
2023-04-14T22:33:38.473Z,15.63
2023-04-14T22:36:07.918Z,15.90
2023-04-14T22:38:36.705Z,17.38
2023-04-14T22:41:05.318Z,13.20
2023-04-14T22:43:33.946Z,14.23
2023-04-14T22:46:02.596Z,14.57
2023-04-14T22:48:32.974Z,15.00
2023-04-14T22:51:01.580Z,14.10
2023-04-14T22:53:30.184Z,14.73
2023-04-14T22:55:59.432Z,12.77
2023-04-14T22:58:29.631Z,13.60
2023-04-14T23:00:59.425Z,13.63
2023-04-14T23:03:28.609Z,13.30
2023-04-14T23:06:00.283Z,13.57
2023-04-14T23:08:28.831Z,14.43
2023-04-14T23:10:57.408Z,13.50
2023-04-14T23:13:26.346Z,13.27
2023-04-14T23:15:54.944Z,13.10
2023-04-14T23:18:25.081Z,12.30
2023-04-14T23:20:53.626Z,13.90
2023-04-14T23:23:23.886Z,14.67
2023-04-14T23:25:52.430Z,12.03
2023-04-14T23:28:21.304Z,11.87
2023-04-14T23:30:49.873Z,16.77
2023-04-14T23:33:18.428Z,14.20
2023-04-14T23:35:47.116Z,12.93
2023-04-14T23:38:17.419Z,12.80
2023-04-14T23:40:48.489Z,12.57
2023-04-14T23:43:17.134Z,12.67
2023-04-14T23:45:46.038Z,12.53
2023-04-14T23:48:14.565Z,13.70
2023-04-14T23:51:00.690Z,12.00
2023-04-14T23:53:32.748Z,12.57
2023-04-14T23:56:04.280Z,12.20
2023-04-14T23:58:33.820Z,12.77
